createdAt,value
2023-01-30T00:01:23.209Z,0.70
2023-01-30T00:03:49.841Z,0.70
2023-01-30T00:06:16.791Z,0.70
2023-01-30T00:08:43.531Z,0.70
2023-01-30T00:11:12.295Z,0.70
2023-01-30T00:13:39.871Z,0.60
2023-01-30T00:16:07.327Z,0.70
2023-01-30T00:18:33.977Z,0.70
2023-01-30T00:21:03.296Z,0.70
2023-01-30T00:23:31.201Z,0.70
2023-01-30T00:25:57.886Z,0.60
2023-01-30T00:28:25.235Z,0.60
2023-01-30T00:30:53.652Z,0.60
2023-01-30T00:33:22.013Z,0.60
2023-01-30T00:35:50.503Z,0.60
2023-01-30T00:38:20.217Z,0.60
2023-01-30T00:40:48.230Z,0.60
2023-01-30T00:43:35.647Z,0.60
2023-01-30T00:46:23.225Z,0.60
2023-01-30T00:48:50.064Z,0.60
2023-01-30T00:51:16.717Z,0.60
2023-01-30T00:53:43.424Z,0.70
2023-01-30T00:56:10.077Z,0.60
2023-01-30T00:58:36.791Z,0.60
2023-01-30T01:01:03.638Z,0.60
2023-01-30T01:03:30.368Z,0.60
2023-01-30T01:05:57.004Z,0.60
2023-01-30T01:08:23.681Z,0.60
2023-01-30T01:10:50.304Z,0.60
2023-01-30T01:13:16.994Z,0.60
2023-01-30T01:15:43.602Z,0.60
2023-01-30T01:18:10.305Z,0.60
2023-01-30T01:20:36.955Z,0.50
2023-01-30T01:23:03.687Z,0.50
2023-01-30T01:25:30.374Z,0.50
2023-01-30T01:27:57.054Z,0.50
2023-01-30T01:30:24.012Z,0.60
2023-01-30T01:32:50.710Z,0.50
2023-01-30T01:35:19.627Z,0.50
2023-01-30T01:37:46.878Z,0.50
2023-01-30T01:40:38.782Z,0.50
2023-01-30T01:43:26.072Z,0.50
2023-01-30T01:45:58.710Z,0.50
2023-01-30T01:48:32.806Z,0.50
2023-01-30T01:51:03.663Z,0.50
2023-01-30T01:53:44.781Z,0.50
2023-01-30T01:56:14.591Z,0.50
2023-01-30T01:58:49.561Z,0.50
2023-01-30T02:01:16.405Z,0.50
2023-01-30T02:03:47.348Z,0.50
2023-01-30T02:06:16.146Z,0.50
2023-01-30T02:08:48.017Z,0.50
2023-01-30T02:11:22.227Z,0.60
2023-01-30T02:13:50.585Z,0.60
2023-01-30T02:16:17.711Z,0.60
2023-01-30T02:18:45.927Z,0.70
2023-01-30T02:21:43.239Z,0.70
2023-01-30T02:24:34.678Z,0.70
2023-01-30T02:27:45.744Z,0.70
2023-01-30T02:30:15.463Z,0.60
2023-01-30T02:33:07.004Z,0.60
2023-01-30T02:36:11.368Z,0.60
2023-01-30T02:38:37.992Z,0.60
2023-01-30T02:41:37.144Z,0.60
2023-01-30T02:44:05.687Z,0.60
2023-01-30T02:46:51.128Z,0.60
2023-01-30T02:49:30.732Z,0.60
2023-01-30T02:51:59.045Z,0.60
2023-01-30T02:54:25.898Z,0.60
2023-01-30T02:56:56.870Z,0.50
2023-01-30T02:59:33.170Z,0.50
2023-01-30T03:02:24.869Z,0.50
2023-01-30T03:05:06.965Z,0.50
2023-01-30T03:07:59.983Z,0.50
2023-01-30T03:10:36.747Z,0.40
2023-01-30T03:13:13.089Z,0.40
2023-01-30T03:15:49.909Z,0.40
2023-01-30T03:18:18.502Z,0.30
2023-01-30T03:20:45.302Z,0.40
2023-01-30T03:23:12.233Z,0.30
2023-01-30T03:25:40.844Z,0.30
2023-01-30T03:28:09.623Z,0.30
2023-01-30T03:30:36.329Z,0.30
2023-01-30T03:33:02.973Z,0.20
2023-01-30T03:35:30.121Z,0.20
2023-01-30T03:37:57.944Z,0.20
2023-01-30T03:40:24.805Z,0.20
2023-01-30T03:42:51.444Z,0.20
2023-01-30T03:45:18.493Z,0.20
2023-01-30T03:47:45.363Z,0.20
2023-01-30T03:50:12.418Z,0.20
2023-01-30T03:52:39.148Z,0.20
2023-01-30T03:55:06.258Z,0.20
2023-01-30T03:57:32.895Z,0.20
2023-01-30T03:59:59.587Z,0.20
2023-01-30T04:02:26.490Z,0.20
2023-01-30T04:04:53.777Z,0.20
2023-01-30T04:07:20.550Z,0.20
2023-01-30T04:09:47.227Z,0.20
2023-01-30T04:12:14.225Z,0.20
2023-01-30T04:14:41.252Z,0.10
2023-01-30T04:17:08.050Z,0.10
2023-01-30T04:19:34.717Z,0.10
2023-01-30T04:22:01.400Z,0.10
2023-01-30T04:24:28.060Z,0.20
2023-01-30T04:26:54.727Z,0.10
2023-01-30T04:29:21.341Z,0.10
2023-01-30T04:31:47.962Z,0.10
2023-01-30T04:34:14.616Z,0.10
2023-01-30T04:36:41.786Z,0.10
2023-01-30T04:39:08.437Z,0.10
2023-01-30T04:41:35.092Z,0.10
2023-01-30T04:44:01.758Z,0.10
2023-01-30T04:46:28.494Z,0.10
2023-01-30T04:48:55.157Z,0.10
2023-01-30T04:51:21.805Z,0.10
2023-01-30T04:53:48.468Z,0.10
2023-01-30T04:56:15.221Z,0.00
2023-01-30T04:58:41.932Z,0.10
2023-01-30T05:01:31.086Z,0.00
2023-01-30T05:03:57.780Z,0.10
2023-01-30T05:06:24.599Z,0.10
2023-01-30T05:08:53.531Z,0.10
2023-01-30T05:11:21.081Z,0.10
2023-01-30T05:13:47.940Z,0.10
2023-01-30T05:16:16.362Z,0.10
2023-01-30T05:18:43.547Z,0.10
2023-01-30T05:21:15.370Z,0.10
2023-01-30T05:23:42.785Z,0.20
2023-01-30T05:26:10.000Z,0.20
2023-01-30T05:28:36.824Z,0.20
2023-01-30T05:31:05.689Z,0.20
2023-01-30T05:33:32.873Z,0.30
2023-01-30T05:35:59.980Z,0.30
2023-01-30T05:38:27.619Z,0.30
2023-01-30T05:41:08.103Z,0.30
2023-01-30T05:43:35.512Z,0.30
2023-01-30T05:46:04.011Z,0.30
2023-01-30T05:48:31.140Z,0.30
2023-01-30T05:50:59.289Z,0.30
2023-01-30T05:53:29.536Z,0.30
2023-01-30T05:56:04.540Z,0.30
2023-01-30T05:58:32.437Z,0.30
2023-01-30T06:01:04.268Z,0.30
2023-01-30T06:03:31.289Z,0.20
2023-01-30T06:05:57.979Z,0.20
2023-01-30T06:08:24.719Z,0.20
2023-01-30T06:10:51.411Z,0.20
2023-01-30T06:13:18.256Z,0.20
2023-01-30T06:15:45.149Z,0.20
2023-01-30T06:18:12.007Z,0.20
2023-01-30T06:20:38.799Z,0.20
2023-01-30T06:23:05.478Z,0.20
2023-01-30T06:25:32.136Z,0.20
2023-01-30T06:27:58.762Z,0.20
2023-01-30T06:30:25.556Z,0.30
2023-01-30T06:32:52.499Z,0.30
2023-01-30T06:35:19.812Z,0.40
2023-01-30T06:37:46.796Z,0.50
2023-01-30T06:40:13.833Z,0.50
2023-01-30T06:42:45.637Z,0.60
2023-01-30T06:45:13.445Z,0.60
2023-01-30T06:47:50.827Z,0.60
2023-01-30T06:50:19.056Z,0.70
2023-01-30T06:52:48.183Z,0.70
2023-01-30T06:55:17.687Z,0.80
2023-01-30T06:57:45.436Z,0.80
2023-01-30T07:00:18.312Z,0.80
2023-01-30T07:02:45.754Z,0.80
2023-01-30T07:05:13.024Z,0.80
2023-01-30T07:07:39.913Z,0.80
2023-01-30T07:10:09.069Z,0.80
2023-01-30T07:12:36.453Z,0.80
2023-01-30T07:15:04.096Z,0.80
2023-01-30T07:17:30.932Z,0.80
2023-01-30T07:19:57.788Z,0.70
2023-01-30T07:22:24.492Z,0.70
2023-01-30T07:24:51.319Z,0.70
2023-01-30T07:27:17.993Z,0.70
2023-01-30T07:29:44.912Z,0.60
2023-01-30T07:32:16.194Z,0.60
2023-01-30T07:34:42.936Z,0.60
2023-01-30T07:37:09.675Z,0.60
2023-01-30T07:39:36.336Z,0.60
2023-01-30T07:42:03.805Z,0.60
2023-01-30T07:44:30.652Z,0.60
2023-01-30T07:46:57.442Z,0.60
2023-01-30T07:49:24.211Z,0.60
2023-01-30T07:51:50.890Z,0.60
2023-01-30T07:54:17.677Z,0.60
2023-01-30T07:56:44.737Z,0.60
2023-01-30T07:59:12.031Z,0.50
2023-01-30T08:01:38.870Z,0.50
2023-01-30T08:04:05.527Z,0.50
2023-01-30T08:06:32.283Z,0.50
2023-01-30T08:08:58.933Z,0.50
2023-01-30T08:11:25.624Z,0.50
2023-01-30T08:13:52.285Z,0.50
2023-01-30T08:16:18.932Z,0.50
2023-01-30T08:18:45.620Z,0.50
2023-01-30T08:21:12.360Z,0.50
2023-01-30T08:23:39.048Z,0.60
2023-01-30T08:26:06.345Z,0.70
2023-01-30T08:28:33.210Z,0.70
2023-01-30T08:31:00.010Z,0.80
2023-01-30T08:33:26.738Z,0.90
2023-01-30T08:35:53.401Z,1.00
2023-01-30T08:38:20.117Z,1.00
2023-01-30T08:40:46.749Z,1.10
2023-01-30T08:43:13.415Z,1.20
2023-01-30T08:45:40.059Z,1.10
2023-01-30T08:48:07.182Z,1.10
2023-01-30T08:50:33.953Z,1.10
2023-01-30T08:53:09.124Z,1.10
2023-01-30T08:55:36.128Z,1.10
2023-01-30T08:58:02.980Z,1.10
2023-01-30T09:00:30.358Z,1.20
2023-01-30T09:02:58.202Z,1.30
2023-01-30T09:05:25.404Z,1.40
2023-01-30T09:07:52.054Z,1.40
2023-01-30T09:10:19.448Z,1.50
2023-01-30T09:12:46.733Z,1.50
2023-01-30T09:15:13.435Z,1.60
2023-01-30T09:17:40.155Z,1.70
2023-01-30T09:20:09.304Z,1.70
2023-01-30T09:22:35.933Z,1.80
2023-01-30T09:25:02.619Z,1.90
2023-01-30T09:27:29.383Z,1.90
2023-01-30T09:29:56.048Z,2.00
2023-01-30T09:32:22.752Z,2.00
2023-01-30T09:34:49.420Z,2.10
2023-01-30T09:37:16.083Z,2.10
2023-01-30T09:39:42.763Z,2.20
2023-01-30T09:42:53.946Z,2.20
2023-01-30T09:45:35.172Z,2.20
2023-01-30T09:48:10.723Z,2.30
2023-01-30T09:51:02.123Z,2.30
2023-01-30T09:53:39.559Z,2.30
2023-01-30T09:56:06.288Z,2.40
2023-01-30T09:58:47.794Z,2.40
2023-01-30T10:01:23.867Z,2.30
2023-01-30T10:04:09.375Z,2.30
2023-01-30T10:06:43.493Z,2.40
2023-01-30T10:09:29.121Z,2.40
2023-01-30T10:12:07.595Z,2.40
2023-01-30T10:14:49.744Z,2.40
2023-01-30T10:17:33.011Z,2.30
2023-01-30T10:20:25.778Z,2.20
2023-01-30T10:23:10.523Z,2.30
2023-01-30T10:25:43.118Z,2.30
2023-01-30T10:28:20.931Z,2.30
2023-01-30T10:30:51.502Z,2.40
2023-01-30T10:33:35.738Z,2.50
2023-01-30T10:36:11.212Z,2.60
2023-01-30T10:38:46.041Z,2.80
2023-01-30T10:41:26.908Z,2.90
2023-01-30T10:44:01.664Z,3.00
2023-01-30T10:46:56.418Z,3.10
2023-01-30T10:49:36.566Z,3.20
2023-01-30T10:52:18.647Z,3.30
2023-01-30T10:54:55.109Z,3.40
2023-01-30T10:57:59.578Z,3.40
2023-01-30T11:00:35.049Z,3.40
2023-01-30T11:03:17.280Z,3.40
2023-01-30T11:05:51.465Z,3.50
2023-01-30T11:08:31.413Z,3.50
2023-01-30T11:10:58.285Z,3.50
2023-01-30T11:13:33.199Z,3.40
2023-01-30T11:16:06.060Z,3.40
2023-01-30T11:19:17.643Z,3.30
2023-01-30T11:21:42.103Z,3.30
2023-01-30T11:24:19.887Z,3.30
2023-01-30T11:26:48.434Z,3.30
2023-01-30T11:29:17.049Z,3.30
2023-01-30T11:31:50.817Z,3.30
2023-01-30T11:34:20.614Z,3.40
2023-01-30T11:36:48.128Z,3.40
2023-01-30T11:39:15.917Z,3.40
2023-01-30T11:41:43.991Z,3.40
2023-01-30T11:44:11.546Z,3.50
2023-01-30T11:46:40.739Z,3.50
2023-01-30T11:49:45.706Z,3.60
2023-01-30T11:52:06.169Z,3.70
2023-01-30T11:54:39.759Z,3.70
2023-01-30T11:57:14.479Z,3.70
2023-01-30T11:59:45.914Z,3.80
2023-01-30T12:02:20.335Z,3.80
2023-01-30T12:04:52.753Z,3.80
2023-01-30T12:07:28.370Z,3.90
2023-01-30T12:09:57.711Z,3.90
2023-01-30T12:12:29.084Z,3.90
2023-01-30T12:15:26.195Z,3.80
2023-01-30T12:18:03.709Z,3.80
2023-01-30T12:20:52.517Z,3.80
2023-01-30T12:23:46.190Z,3.80
2023-01-30T12:26:18.558Z,3.90
2023-01-30T12:29:20.138Z,4.00
2023-01-30T12:31:54.650Z,4.00
2023-01-30T12:34:25.794Z,4.10
2023-01-30T12:37:15.281Z,4.20
2023-01-30T12:40:01.205Z,4.20
2023-01-30T12:42:41.655Z,4.30
2023-01-30T12:45:24.984Z,4.30
2023-01-30T12:48:17.433Z,4.40
2023-01-30T12:51:12.794Z,4.40
2023-01-30T12:54:05.967Z,4.40
2023-01-30T12:56:58.375Z,4.40
2023-01-30T12:59:38.900Z,4.40
2023-01-30T13:02:43.159Z,4.40
2023-01-30T13:05:31.386Z,4.40
2023-01-30T13:08:06.665Z,4.50
2023-01-30T13:10:59.982Z,4.50
2023-01-30T13:13:43.108Z,4.60
2023-01-30T13:16:36.330Z,4.60
2023-01-30T13:19:40.374Z,4.60
2023-01-30T13:22:22.862Z,4.60
2023-01-30T13:25:20.722Z,4.60
2023-01-30T13:27:58.242Z,4.70
2023-01-30T13:30:27.685Z,4.60
2023-01-30T13:33:03.764Z,4.60
2023-01-30T13:35:40.497Z,4.60
2023-01-30T13:38:10.234Z,4.50
2023-01-30T13:40:44.267Z,4.50
2023-01-30T13:43:27.884Z,4.50
2023-01-30T13:45:58.036Z,4.40
2023-01-30T13:48:46.354Z,4.40
2023-01-30T13:51:41.801Z,4.30
2023-01-30T13:54:35.791Z,4.30
2023-01-30T13:57:37.222Z,4.30
2023-01-30T14:00:32.679Z,4.20
2023-01-30T14:03:23.480Z,4.20
2023-01-30T14:06:00.569Z,4.20
2023-01-30T14:08:29.726Z,4.30
2023-01-30T14:10:57.738Z,4.20
2023-01-30T14:13:26.438Z,4.20
2023-01-30T14:15:58.580Z,4.20
2023-01-30T14:18:31.289Z,4.30
2023-01-30T14:21:20.450Z,4.30
2023-01-30T14:24:02.073Z,4.30
2023-01-30T14:26:47.732Z,4.30
2023-01-30T14:29:40.872Z,4.30
2023-01-30T14:32:17.473Z,4.30
2023-01-30T14:35:05.573Z,4.20
2023-01-30T14:37:35.293Z,4.20
2023-01-30T14:40:02.478Z,4.20
2023-01-30T14:42:31.514Z,4.20
2023-01-30T14:45:02.280Z,4.20
2023-01-30T14:47:34.103Z,4.20
2023-01-30T14:50:22.652Z,4.20
2023-01-30T14:52:54.572Z,4.30
2023-01-30T14:55:24.297Z,4.30
2023-01-30T14:58:00.560Z,4.30
2023-01-30T15:00:32.328Z,4.30
2023-01-30T15:03:03.617Z,4.30
2023-01-30T15:05:48.318Z,4.30
2023-01-30T15:08:22.213Z,4.30
2023-01-30T15:11:07.372Z,4.30
2023-01-30T15:13:58.642Z,4.20
2023-01-30T15:16:44.599Z,4.20
2023-01-30T15:19:16.898Z,4.20
2023-01-30T15:22:02.777Z,4.20
2023-01-30T15:24:50.847Z,4.20
2023-01-30T15:27:39.863Z,4.20
2023-01-30T15:30:24.258Z,4.20
2023-01-30T15:33:11.774Z,4.20
2023-01-30T15:35:38.424Z,4.20
2023-01-30T15:38:05.060Z,4.20
2023-01-30T15:40:32.157Z,4.20
2023-01-30T15:43:01.541Z,4.20
2023-01-30T15:45:55.421Z,4.10
2023-01-30T15:48:58.311Z,4.10
2023-01-30T15:51:30.930Z,4.10
2023-01-30T15:53:59.313Z,4.10
2023-01-30T15:56:32.010Z,4.10
2023-01-30T15:59:01.715Z,4.20
2023-01-30T16:01:29.178Z,4.20
2023-01-30T16:03:57.980Z,4.10
2023-01-30T16:06:30.691Z,4.10
2023-01-30T16:09:17.048Z,4.10
2023-01-30T16:11:44.113Z,4.10
2023-01-30T16:14:19.715Z,4.00
2023-01-30T16:16:48.735Z,4.00
2023-01-30T16:19:29.116Z,4.10
2023-01-30T16:21:59.192Z,4.00
2023-01-30T16:24:32.113Z,4.00
2023-01-30T16:27:02.699Z,4.00
2023-01-30T16:29:32.297Z,3.90
2023-01-30T16:31:59.258Z,3.90
2023-01-30T16:34:37.374Z,3.90
2023-01-30T16:37:19.329Z,3.90
2023-01-30T16:39:58.014Z,3.90
2023-01-30T16:42:27.791Z,3.80
2023-01-30T16:45:19.535Z,3.80
2023-01-30T16:47:46.946Z,3.80
2023-01-30T16:50:23.229Z,3.80
2023-01-30T16:52:54.993Z,3.80
2023-01-30T16:55:24.498Z,3.80
2023-01-30T16:58:03.666Z,3.80
2023-01-30T17:00:40.037Z,3.70
2023-01-30T17:03:20.987Z,3.70
2023-01-30T17:05:49.468Z,3.60
2023-01-30T17:08:42.695Z,3.70
2023-01-30T17:11:09.414Z,3.70
2023-01-30T17:13:43.023Z,3.70
2023-01-30T17:16:27.333Z,3.70
2023-01-30T17:18:58.164Z,3.70
2023-01-30T17:21:27.816Z,3.70
2023-01-30T17:24:05.322Z,3.70
2023-01-30T17:26:32.866Z,3.70
2023-01-30T17:28:59.759Z,3.70
2023-01-30T17:31:27.053Z,3.60
2023-01-30T17:33:53.831Z,3.70
2023-01-30T17:36:28.215Z,3.60
2023-01-30T17:38:56.041Z,3.60
2023-01-30T17:41:32.472Z,3.60
2023-01-30T17:43:59.333Z,3.60
2023-01-30T17:46:42.313Z,3.60
2023-01-30T17:49:17.486Z,3.70
2023-01-30T17:51:44.881Z,3.60
2023-01-30T17:54:12.178Z,3.60
2023-01-30T17:56:41.115Z,3.70
2023-01-30T17:59:16.429Z,3.70
2023-01-30T18:01:44.954Z,3.70
2023-01-30T18:04:11.647Z,3.70
2023-01-30T18:06:40.420Z,3.70
2023-01-30T18:09:07.529Z,3.70
2023-01-30T18:11:34.166Z,3.70
2023-01-30T18:14:00.858Z,3.80
2023-01-30T18:16:31.135Z,3.80
2023-01-30T18:18:59.354Z,3.70
2023-01-30T18:21:26.472Z,3.70
2023-01-30T18:23:53.146Z,3.70
2023-01-30T18:26:20.248Z,3.70
2023-01-30T18:28:47.801Z,3.70
2023-01-30T18:31:15.165Z,3.70
2023-01-30T18:33:44.592Z,3.70
2023-01-30T18:36:16.280Z,3.80
2023-01-30T18:38:43.129Z,3.80
2023-01-30T18:41:24.197Z,3.60
2023-01-30T18:44:02.968Z,3.70
2023-01-30T18:46:30.726Z,3.70
2023-01-30T18:48:58.417Z,3.60
2023-01-30T18:51:30.146Z,3.70
2023-01-30T18:53:57.331Z,3.70
2023-01-30T18:56:27.232Z,3.60
2023-01-30T18:58:56.368Z,3.60
2023-01-30T19:01:27.874Z,3.50
2023-01-30T19:04:00.117Z,3.50
2023-01-30T19:06:28.301Z,3.50
2023-01-30T19:08:56.971Z,3.50
2023-01-30T19:11:43.041Z,3.40
2023-01-30T19:14:10.760Z,3.40
2023-01-30T19:16:38.766Z,3.40
2023-01-30T19:19:06.655Z,3.40
2023-01-30T19:21:33.947Z,3.30
2023-01-30T19:24:08.171Z,3.30
2023-01-30T19:26:35.336Z,3.30
2023-01-30T19:29:02.157Z,3.30
2023-01-30T19:31:29.245Z,3.10
2023-01-30T19:33:58.887Z,3.10
2023-01-30T19:36:27.532Z,3.00
2023-01-30T19:38:54.790Z,3.00
2023-01-30T19:41:22.983Z,2.90
2023-01-30T19:43:50.520Z,2.90
2023-01-30T19:46:17.949Z,2.90
2023-01-30T19:48:46.047Z,2.90
2023-01-30T19:51:21.469Z,2.90
2023-01-30T19:54:04.955Z,2.80
2023-01-30T19:56:32.357Z,2.80
2023-01-30T19:59:00.726Z,2.80
2023-01-30T20:01:30.614Z,2.80
2023-01-30T20:03:59.007Z,2.80
2023-01-30T20:06:29.250Z,2.80
2023-01-30T20:08:58.276Z,2.80
2023-01-30T20:11:24.932Z,2.80
2023-01-30T20:13:52.199Z,2.80
2023-01-30T20:16:25.385Z,2.80
2023-01-30T20:18:59.900Z,2.80
2023-01-30T20:21:27.613Z,2.80
2023-01-30T20:23:55.247Z,2.80
2023-01-30T20:26:26.134Z,2.80
2023-01-30T20:28:54.846Z,2.80
2023-01-30T20:31:24.527Z,2.70
2023-01-30T20:33:51.510Z,2.70
2023-01-30T20:36:19.823Z,2.70
2023-01-30T20:38:48.468Z,2.70
2023-01-30T20:41:26.231Z,2.70
2023-01-30T20:43:57.244Z,2.80
2023-01-30T20:46:50.909Z,2.80
2023-01-30T20:49:20.772Z,2.80
2023-01-30T20:51:52.330Z,2.90
2023-01-30T20:54:21.374Z,2.90
2023-01-30T20:56:50.246Z,2.90
2023-01-30T20:59:20.144Z,3.00
2023-01-30T21:01:47.176Z,3.00
2023-01-30T21:04:15.795Z,3.10
2023-01-30T21:06:45.678Z,3.10
2023-01-30T21:09:15.866Z,3.10
2023-01-30T21:11:43.375Z,3.10
2023-01-30T21:14:10.419Z,3.10
2023-01-30T21:16:38.207Z,3.10
2023-01-30T21:19:07.609Z,3.10
2023-01-30T21:21:43.095Z,3.20
2023-01-30T21:24:13.382Z,3.20
2023-01-30T21:26:42.573Z,3.20
2023-01-30T21:29:09.342Z,3.20
2023-01-30T21:31:38.120Z,3.20
2023-01-30T21:34:05.339Z,3.20
2023-01-30T21:36:32.431Z,3.10
2023-01-30T21:39:17.642Z,3.10
2023-01-30T21:42:04.364Z,3.10
2023-01-30T21:44:33.850Z,3.20
2023-01-30T21:47:00.602Z,3.20
2023-01-30T21:49:27.978Z,3.20
2023-01-30T21:51:55.750Z,3.20
2023-01-30T21:54:23.065Z,3.20
2023-01-30T21:56:50.207Z,3.20
2023-01-30T21:59:17.438Z,3.20
2023-01-30T22:01:44.639Z,3.30
2023-01-30T22:04:16.065Z,3.20
2023-01-30T22:06:43.663Z,3.30
2023-01-30T22:09:15.879Z,3.30
2023-01-30T22:11:43.138Z,3.30
2023-01-30T22:14:13.225Z,3.30
2023-01-30T22:16:40.109Z,3.30
2023-01-30T22:19:06.972Z,3.40
2023-01-30T22:21:37.441Z,3.40
2023-01-30T22:24:05.943Z,3.40
2023-01-30T22:26:33.703Z,3.40
2023-01-30T22:29:02.955Z,3.40
2023-01-30T22:31:34.547Z,3.40
2023-01-30T22:34:02.599Z,3.40
2023-01-30T22:36:31.546Z,3.40
2023-01-30T22:38:58.373Z,3.50
2023-01-30T22:41:26.839Z,3.50
2023-01-30T22:43:58.363Z,3.50
2023-01-30T22:46:27.276Z,3.50
2023-01-30T22:48:54.842Z,3.60
2023-01-30T22:51:26.329Z,3.60
2023-01-30T22:53:55.413Z,3.60
2023-01-30T22:56:25.391Z,3.60
2023-01-30T22:58:52.323Z,3.60
2023-01-30T23:01:27.629Z,3.70
2023-01-30T23:03:59.847Z,3.70
2023-01-30T23:06:27.490Z,3.70
2023-01-30T23:08:55.489Z,3.70
2023-01-30T23:11:23.824Z,3.70
2023-01-30T23:14:13.157Z,3.70
2023-01-30T23:16:42.919Z,3.70
2023-01-30T23:19:11.059Z,3.70
2023-01-30T23:21:45.916Z,3.70
2023-01-30T23:24:18.519Z,3.70
2023-01-30T23:26:48.868Z,3.70
2023-01-30T23:29:17.860Z,3.70
2023-01-30T23:31:46.254Z,3.70
2023-01-30T23:34:16.171Z,3.70
2023-01-30T23:36:43.236Z,3.60
2023-01-30T23:39:13.423Z,3.60
2023-01-30T23:41:41.864Z,3.60
2023-01-30T23:44:09.607Z,3.50
2023-01-30T23:46:39.200Z,3.50
2023-01-30T23:49:14.662Z,3.40
2023-01-30T23:51:43.174Z,3.40
2023-01-30T23:54:11.388Z,3.40
2023-01-30T23:56:40.907Z,3.30
2023-01-30T23:59:07.653Z,3.30
